Dades meteomassalio
Diari Summary for Maig 10, 2017 Units:  Metric    English   Both
« Previous Day
Next Day »
Diari Semanal Mensual Anual Personalitzat
  Maxima: Minima: Mijana:
Temperatura: -17.8 °C -11.2 °C -8.1 °C
Rosada: -17.8 °C -12.1 °C -10.8 °C
Humitat: Humidity % 47 % 75 %
Velocitat del vent: 0 km/h 0 km/h 16.7 km/h
Racha vent: 0 km/h - -
Vent:- - SE
Pressio: 0 hPa 33880.3 hPa -
Pluja: 180.34 mm    
Historical Graphs
 
 
Tabular Data for Maig 10, 2017
Time Temperature Dew Point Pressure Wind Wind Speed Wind Gust Humidity Rainfall Rate (Hourly) solar Conditions
-17.8 °C -17.8 °C 0 hPa Calm     Humidity % 0 mm SolarRadiationWatts/m^2 W/m2 Conditions
00:01 -9.5 °C -10.4 °C 34097 hPa ENE 10.3 km/h 10.3 km/h 89 % 0 mm 0.0 W/m2 RA
00:06 -9.5 °C -10.4 °C 34097 hPa ENE 2.6 km/h 4.2 km/h 89 % 0 mm 0.0 W/m2 CLR
00:12 -9.5 °C -10.5 °C 34086.9 hPa East 15 km/h 15 km/h 89 % 0 mm 0.0 W/m2 CLR
00:17 -9.5 °C -10.5 °C 34073.3 hPa ESE 17.9 km/h 17.9 km/h 89 % 0 mm 0.0 W/m2 CLR
00:22 -9.5 °C -10.5 °C 34086.9 hPa ESE 9 km/h 9 km/h 89 % 0 mm 0.0 W/m2 CLR
00:27 -9.6 °C -10.6 °C 34086.9 hPa Calm     88 % 0 mm 0.0 W/m2 CLR
00:32 -9.6 °C -10.7 °C 34086.9 hPa Calm     88 % 0 mm 0.0 W/m2 CLR
00:37 -9.6 °C -10.7 °C 34086.9 hPa Calm     88 % 0 mm 0.0 W/m2 CLR
00:42 -9.6 °C -10.7 °C 34073.3 hPa Calm     88 % 0 mm 0.0 W/m2 CLR
00:47 -9.7 °C -10.7 °C 34073.3 hPa Calm     89 % 0 mm 0.0 W/m2 CLR
00:52 -9.7 °C -10.7 °C 34073.3 hPa Calm     89 % 0 mm 0.0 W/m2 CLR
00:57 -9.7 °C -10.7 °C 34073.3 hPa Calm     89 % 0 mm 0.0 W/m2 CLR
01:02 -9.6 °C -10.7 °C 34073.3 hPa Calm     88 % 0 mm 0.0 W/m2 CLR
01:07 -9.6 °C -10.7 °C 34073.3 hPa SSW 7.7 km/h 7.7 km/h 88 % 0 mm 0.0 W/m2 CLR
01:12 -9.7 °C -10.9 °C 34073.3 hPa Calm     87 % 0 mm 0.0 W/m2 CLR
01:17 -9.7 °C -10.9 °C 34073.3 hPa SSE 20.9 km/h 20.9 km/h 87 % 0 mm 0.0 W/m2 CLR
01:22 -9.5 °C -10.9 °C 34073.3 hPa SSE 29.8 km/h 29.8 km/h 84 % 7.62 mm 0.0 W/m2 RA
01:27 -9.3 °C -11.1 °C 34073.3 hPa SSE 35.7 km/h 35.7 km/h 82 % 7.62 mm 0.0 W/m2
01:32 -9.3 °C -11.1 °C 34073.3 hPa SSE 28.5 km/h 28.5 km/h 81 % 7.62 mm 0.0 W/m2 CLR
01:37 -9.3 °C -11.2 °C 34063.2 hPa SSE 38.8 km/h 38.8 km/h 80 % 7.62 mm 0.0 W/m2 CLR
01:42 -9.2 °C -11.2 °C 34063.2 hPa SE 23.8 km/h 23.8 km/h 79 % 7.62 mm 0.0 W/m2 CLR
01:47 -9.1 °C -11.3 °C 34063.2 hPa SSE 29.8 km/h 29.8 km/h 78 % 7.62 mm 0.0 W/m2 CLR
01:52 -9.1 °C -11.4 °C 34049.6 hPa SSE 26.9 km/h 26.9 km/h 76 % 7.62 mm 0.0 W/m2 CLR
01:57 -9.1 °C -11.4 °C 34049.6 hPa SSE 20.9 km/h 20.9 km/h 76 % 7.62 mm 0.0 W/m2 CLR
02:02 -9.1 °C -11.4 °C 34049.6 hPa SSE 17.9 km/h 17.9 km/h 76 % 7.62 mm 0.0 W/m2 CLR
02:07 -9.1 °C -11.3 °C 34049.6 hPa SSE 11.9 km/h 11.9 km/h 77 % 7.62 mm 0.0 W/m2 CLR
02:12 -9.2 °C -11.4 °C 34049.6 hPa SE 15 km/h 15 km/h 77 % 7.62 mm 0.0 W/m2 CLR
02:17 -9.3 °C -11.5 °C 34049.6 hPa SSE 11.9 km/h 11.9 km/h 77 % 7.62 mm 0.0 W/m2 CLR
02:22 -9.3 °C -11.4 °C 34049.6 hPa SSE 9 km/h 9 km/h 78 % 0 mm 0.0 W/m2 CLR
02:27 -9.3 °C -11.3 °C 34039.5 hPa Calm     79 % 0 mm 0.0 W/m2 CLR
02:32 -9.4 °C -11.4 °C 34039.5 hPa SSW 9 km/h 9 km/h 79 % 0 mm 0.0 W/m2 CLR
02:37 -9.4 °C -11.4 °C 34039.5 hPa South 15 km/h 15 km/h 79 % 0 mm 0.0 W/m2 CLR
02:42 -9.4 °C -11.4 °C 34029.3 hPa ESE 11.9 km/h 11.9 km/h 79 % 0 mm 0.0 W/m2 CLR
02:47 -9.4 °C -11.4 °C 34029.3 hPa SSE 20.9 km/h 20.9 km/h 79 % 0 mm 0.0 W/m2 CLR
02:52 -9.4 °C -11.6 °C 34029.3 hPa SE 20.9 km/h 20.9 km/h 78 % 0 mm 0.0 W/m2 CLR
02:57 -9.4 °C -11.6 °C 34029.3 hPa South 17.9 km/h 17.9 km/h 78 % 0 mm 0.0 W/m2 CLR
03:02 -9.4 °C -11.6 °C 34029.3 hPa South 26.9 km/h 26.9 km/h 78 % 0 mm 0.0 W/m2 CLR
03:07 -9.4 °C -11.6 °C 34015.8 hPa SSE 11.9 km/h 11.9 km/h 77 % 0 mm 0.0 W/m2 CLR
03:12 -9.4 °C -11.6 °C 34015.8 hPa SE 12.9 km/h 12.9 km/h 77 % 0 mm 0.0 W/m2 CLR
03:17 -9.4 °C -11.7 °C 34015.8 hPa ESE 9 km/h 9 km/h 76 % 0 mm 0.0 W/m2 CLR
03:22 -9.4 °C -11.7 °C 34015.8 hPa East 6 km/h   76 % 0 mm 0.0 W/m2 CLR
03:27 -9.4 °C -11.7 °C 34015.8 hPa Calm     77 % 0 mm 0.0 W/m2 CLR
03:32 -9.5 °C -11.7 °C 34015.8 hPa Calm     77 % 0 mm 0.0 W/m2 CLR
03:37 -9.6 °C -11.6 °C 34015.8 hPa Calm     78 % 0 mm 0.0 W/m2 CLR
03:42 -9.6 °C -11.6 °C 34015.8 hPa Calm     79 % 0 mm 0.0 W/m2 CLR
03:47 -9.7 °C -11.7 °C 34005.6 hPa Calm     79 % 0 mm 0.0 W/m2 CLR
03:52 -9.8 °C -11.6 °C 34005.6 hPa Calm     80 % 0 mm 0.0 W/m2 CLR
03:57 -9.8 °C -11.7 °C 34005.6 hPa Calm     80 % 0 mm 0.0 W/m2 CLR
04:02 -9.9 °C -11.8 °C 34005.6 hPa Calm     80 % 0 mm 0.0 W/m2 CLR
04:07 -9.9 °C -11.9 °C 34005.6 hPa Calm     79 % 0 mm 0.0 W/m2 CLR
04:12 -9.8 °C -11.8 °C 34005.6 hPa Calm     79 % 0 mm 0.0 W/m2 CLR
04:17 -9.8 °C -11.8 °C 34005.6 hPa Calm     79 % 0 mm 0.0 W/m2 CLR
04:22 -9.8 °C -11.7 °C 34005.6 hPa Calm     80 % 0 mm 0.0 W/m2 CLR
04:27 -9.9 °C -11.8 °C 33992.1 hPa Calm     80 % 0 mm 0.0 W/m2 CLR
04:32 -10 °C -11.8 °C 33992.1 hPa Calm     81 % 0 mm 0.0 W/m2 CLR
04:37 -10.1 °C -11.7 °C 33992.1 hPa Calm     82 % 0 mm 0.0 W/m2 CLR
04:42 -10.1 °C -11.8 °C 33992.1 hPa Calm     82 % 0 mm 0.0 W/m2 CLR
04:47 -10.2 °C -11.7 °C 33992.1 hPa Calm     83 % 0 mm 0.0 W/m2 CLR
04:52 -10.2 °C -11.8 °C 33992.1 hPa Calm     83 % 0 mm 0.0 W/m2 CLR
04:57 -10.3 °C -11.8 °C 33992.1 hPa Calm     83 % 0 mm 0.0 W/m2 CLR
05:02 -10.4 °C -11.8 °C 33992.1 hPa Calm     84 % 0 mm 0.0 W/m2 CLR
05:07 -10.4 °C -11.8 °C 33992.1 hPa Calm     85 % 0 mm 0.0 W/m2 CLR
05:12 -10.4 °C -11.8 °C 33992.1 hPa Calm     85 % 0 mm 0.0 W/m2 CLR
05:17 -10.5 °C -11.8 °C 33992.1 hPa Calm     85 % 0 mm 0.0 W/m2 CLR
05:22 -10.5 °C -11.8 °C 33992.1 hPa Calm     86 % 0 mm 0.0 W/m2 CLR
05:27 -10.6 °C -11.8 °C 33981.9 hPa Calm     86 % 0 mm 0.0 W/m2 CLR
05:32 -10.6 °C -11.8 °C 33981.9 hPa Calm     86 % 0 mm 0.0 W/m2 CLR
05:37 -10.7 °C -11.8 °C 33992.1 hPa Calm     87 % 0 mm 0.0 W/m2 CLR
05:42 -10.7 °C -11.8 °C 33992.1 hPa Calm     87 % 0 mm 0.0 W/m2 CLR
05:47 -10.7 °C -11.9 °C 33992.1 hPa Calm     87 % 0 mm 0.0 W/m2 CLR
05:52 -10.8 °C -11.9 °C 33992.1 hPa Calm     87 % 0 mm 0.0 W/m2 CLR
05:57 -10.8 °C -11.8 °C 33992.1 hPa Calm     88 % 0 mm 0.0 W/m2 CLR
06:02 -10.8 °C -11.9 °C 33992.1 hPa Calm     88 % 0 mm 0.0 W/m2 CLR
06:07 -10.8 °C -11.9 °C 33992.1 hPa Calm     88 % 0 mm 0.0 W/m2 CLR
06:12 -10.9 °C -12 °C 33992.1 hPa Calm     88 % 0 mm 0.0 W/m2 CLR
06:17 -10.9 °C -12 °C 33992.1 hPa Calm     88 % 0 mm 0.0 W/m2 CLR
06:22 -10.9 °C -11.9 °C 33981.9 hPa Calm     89 % 0 mm 0.0 W/m2 CLR
06:27 -11 °C -12 °C 33992.1 hPa Calm     89 % 0 mm 0.0 W/m2 CLR
06:32 -11 °C -12 °C 33992.1 hPa Calm     89 % 0 mm 0.0 W/m2 CLR
06:37 -11 °C -12 °C 33992.1 hPa Calm     89 % 0 mm 0.0 W/m2 OVC
06:42 -11.1 °C -12.1 °C 33992.1 hPa Calm     89 % 0 mm 0.0 W/m2 OVC
06:47 -11.1 °C -11.9 °C 33992.1 hPa Calm     90 % 0 mm 0.0 W/m2 OVC
06:52 -11.1 °C -11.9 °C 33992.1 hPa Calm     90 % 0 mm 0.0 W/m2 OVC
06:57 -11.1 °C -12 °C 33992.1 hPa Calm     90 % 0 mm 0.0 W/m2 OVC
07:02 -11.1 °C -12 °C 33992.1 hPa Calm     90 % 0 mm 0.0 W/m2 OVC
07:07 -11.1 °C -12 °C 33992.1 hPa Calm     90 % 0 mm 5.0 W/m2 OVC
07:12 -11.1 °C -12 °C 33992.1 hPa Calm     90 % 0 mm 9.0 W/m2 BKN
07:17 -11.1 °C -12 °C 33992.1 hPa Calm     90 % 0 mm 14.0 W/m2 BKN
07:22 -11.1 °C -12 °C 33992.1 hPa Calm     90 % 0 mm 18.0 W/m2 BKN
07:27 -11.1 °C -12 °C 33992.1 hPa Calm     90 % 0 mm 25.0 W/m2 BKN
07:33 -11.2 °C -12.1 °C 34005.6 hPa Calm     90 % 0 mm 30.0 W/m2 BKN
07:38 -11.2 °C -12.1 °C 34005.6 hPa Calm     90 % 0 mm 37.0 W/m2 BKN
07:43 -11.1 °C -12 °C 34005.6 hPa Calm     90 % 0 mm 42.0 W/m2 BKN
07:48 -11.1 °C -11.8 °C 34005.6 hPa Calm     91 % 0 mm 51.0 W/m2 BKN
07:53 -11 °C -11.9 °C 34005.6 hPa Calm     90 % 0 mm 62.0 W/m2 SCT
07:58 -10.9 °C -11.8 °C 34005.6 hPa Calm     90 % 0 mm 67.0 W/m2 SCT
08:03 -10.9 °C -11.8 °C 34005.6 hPa Calm     90 % 0 mm 76.0 W/m2 FEW
08:08 -10.8 °C -11.6 °C 34005.6 hPa Calm     91 % 0 mm 77.0 W/m2 FEW
08:13 -10.7 °C -11.6 °C 34015.8 hPa Calm     91 % 0 mm 90.0 W/m2 FEW
08:18 -10.7 °C -11.4 °C 34015.8 hPa Calm     91 % 0 mm 100.0 W/m2 CLR
08:23 -10.6 °C -11.4 °C 34015.8 hPa Calm     91 % 0 mm 107.0 W/m2 CLR
08:28 -10.5 °C -11.3 °C 34015.8 hPa Calm     91 % 0 mm 109.0 W/m2 CLR
08:33 -10.4 °C -11.3 °C 34015.8 hPa Calm     91 % 0 mm 118.0 W/m2 CLR
08:38 -10.4 °C -11.2 °C 34015.8 hPa Calm     91 % 0 mm 125.0 W/m2 CLR
08:43 -10.3 °C -11.2 °C 34015.8 hPa Calm     91 % 0 mm 135.0 W/m2 CLR
08:48 -10.3 °C -11 °C 34005.6 hPa Calm     92 % 0 mm 142.0 W/m2 CLR
08:53 -10.3 °C -11 °C 34015.8 hPa SW 6 km/h 6 km/h 92 % 0 mm 155.0 W/m2 CLR
08:58 -10.2 °C -10.9 °C 34015.8 hPa Calm     92 % 0 mm 162.0 W/m2 CLR
09:03 -10.2 °C -10.9 °C 34015.8 hPa Calm     92 % 0 mm 169.0 W/m2 CLR
09:08 -10.2 °C -10.9 °C 34015.8 hPa Calm     92 % 0 mm 167.0 W/m2 CLR
09:13 -10.1 °C -10.8 °C 34015.8 hPa Calm     92 % 0 mm 193.0 W/m2 CLR
09:18 -10 °C -10.7 °C 34015.8 hPa Calm     92 % 0 mm 174.0 W/m2 CLR
09:23 -9.9 °C -10.7 °C 34015.8 hPa Calm     91 % 0 mm 229.0 W/m2 CLR
09:28 -9.8 °C -10.7 °C 34015.8 hPa Calm     91 % 0 mm 348.0 W/m2 CLR
09:33 -9.7 °C -10.5 °C 34015.8 hPa Calm     91 % 0 mm 220.0 W/m2 CLR
09:38 -9.6 °C -10.3 °C 34015.8 hPa Calm     91 % 0 mm 200.0 W/m2 CLR
09:43 -9.3 °C -10.1 °C 34015.8 hPa Calm     91 % 0 mm 406.0 W/m2 CLR
09:48 -9.2 °C -10.1 °C 34015.8 hPa Calm     90 % 0 mm 432.0 W/m2 CLR
09:53 -9 °C -10 °C 34005.6 hPa Calm     89 % 0 mm 436.0 W/m2 CLR
09:58 -8.8 °C -10.1 °C 34005.6 hPa Calm     87 % 0 mm 459.0 W/m2 CLR
10:03 -8.7 °C -10.3 °C 34005.6 hPa Calm     83 % 0 mm 524.0 W/m2 CLR
10:08 -8.6 °C -10.3 °C 34015.8 hPa Calm     82 % 0 mm 555.0 W/m2 CLR
10:13 -8.4 °C -10.4 °C 34015.8 hPa Calm     80 % 0 mm 601.0 W/m2 CLR
10:18 -8.2 °C -10.2 °C 34015.8 hPa Calm     79 % 0 mm 531.0 W/m2 CLR
10:23 -7.9 °C -10 °C 34015.8 hPa Calm     79 % 0 mm 649.0 W/m2 CLR
10:28 -7.8 °C -10.1 °C 34005.6 hPa Calm     77 % 0 mm 701.0 W/m2 CLR
10:33 -7.7 °C -10.2 °C 34005.6 hPa Calm     75 % 0 mm 717.0 W/m2 CLR
10:38 -7.4 °C -9.9 °C 34005.6 hPa ENE 17.9 km/h 17.9 km/h 76 % 0 mm 673.0 W/m2 CLR
10:43 -7.3 °C -9.9 °C 34005.6 hPa ENE 12.9 km/h 12.9 km/h 74 % 0 mm 751.0 W/m2 CLR
10:48 -7.2 °C -9.9 °C 34015.8 hPa ENE 15 km/h 15 km/h 73 % 0 mm 431.0 W/m2 CLR
10:53 -7.1 °C -9.9 °C 34015.8 hPa Calm     72 % 0 mm 482.0 W/m2 CLR
10:58 -6.9 °C -10.1 °C 34005.6 hPa NNE 9 km/h 9 km/h 70 % 0 mm 355.0 W/m2 CLR
11:03 -6.9 °C -10.1 °C 34005.6 hPa NE 9 km/h 9 km/h 70 % 0 mm 281.0 W/m2 CLR
11:08 -7.1 °C -10.2 °C 34015.8 hPa Calm     70 % 0 mm 236.0 W/m2 CLR
11:13 -7.1 °C -10.1 °C 34005.6 hPa ENE 9 km/h 9 km/h 71 % 0 mm 248.0 W/m2 CLR
11:18 -7.2 °C -10.3 °C 34005.6 hPa NE 10.3 km/h 10.3 km/h 70 % 0 mm 339.0 W/m2 CLR
11:23 -7.2 °C -10.2 °C 34005.6 hPa NNE 9 km/h   71 % 0 mm 350.0 W/m2 CLR
11:28 -7 °C -10 °C 34005.6 hPa Calm     71 % 0 mm 406.0 W/m2 CLR
11:33 -6.8 °C -10.1 °C 34005.6 hPa Calm     69 % 0 mm 381.0 W/m2 CLR
11:38 -6.8 °C -10 °C 34005.6 hPa East 3.1 km/h   69 % 0 mm 501.0 W/m2 CLR
11:43 -6.7 °C -10.2 °C 34005.6 hPa ENE 15.6 km/h 15.6 km/h 67 % 0 mm 367.0 W/m2 CLR
11:48 -6.6 °C -10.1 °C 34005.6 hPa Calm     68 % 0 mm 343.0 W/m2 CLR
11:53 -6.6 °C -10.1 °C 33992.1 hPa East 11.9 km/h 11.9 km/h 67 % 0 mm 322.0 W/m2 CLR
11:58 -6.4 °C -10.2 °C 33992.1 hPa ENE 3.1 km/h 3.1 km/h 65 % 0 mm 295.0 W/m2 CLR
12:03 -6.5 °C -10.4 °C 33992.1 hPa ENE 9 km/h 9 km/h 64 % 0 mm 255.0 W/m2 CLR
12:08 -6.5 °C -10.3 °C 33992.1 hPa Calm     65 % 0 mm 260.0 W/m2 CLR
12:13 -6.3 °C -10.4 °C 33992.1 hPa Calm     63 % 0 mm 963.0 W/m2 CLR
12:18 -6 °C -10.2 °C 33992.1 hPa Calm     62 % 0 mm 935.0 W/m2 CLR
12:23 -5.7 °C -10.1 °C 33992.1 hPa ENE 15.6 km/h 15.6 km/h 61 % 0 mm 925.0 W/m2 CLR
12:28 -5.5 °C -9.8 °C 33992.1 hPa Calm     62 % 0 mm 909.0 W/m2 CLR
12:33 -5.4 °C -9.9 °C 33981.9 hPa ENE 20.9 km/h 20.9 km/h 60 % 0 mm 902.0 W/m2 CLR
12:38 -5.2 °C -9.8 °C 33981.9 hPa East 11.9 km/h 11.9 km/h 60 % 0 mm 882.0 W/m2 CLR
12:43 -5 °C -9.8 °C 33981.9 hPa ENE 11.9 km/h 11.9 km/h 58 % 0 mm 900.0 W/m2 CLR
12:48 -4.9 °C -10.1 °C 33981.9 hPa ESE 10.3 km/h 10.3 km/h 56 % 0 mm 896.0 W/m2 CLR
12:53 -4.9 °C -10.2 °C 33971.7 hPa East 15 km/h 15 km/h 55 % 0 mm 902.0 W/m2 CLR
12:58 -4.8 °C -10.4 °C 33971.7 hPa ENE 18.2 km/h 18.2 km/h 53 % 0 mm 932.0 W/m2 CLR
13:03 -4.6 °C -10.6 °C 33971.7 hPa ENE 26.9 km/h 26.9 km/h 51 % 0 mm 928.0 W/m2 CLR
13:08 -4.7 °C -10.4 °C 33971.7 hPa ESE 23.8 km/h 23.8 km/h 52 % 0 mm 868.0 W/m2 CLR
13:13 -4.6 °C -10.6 °C 33971.7 hPa NE 29.8 km/h 29.8 km/h 51 % 0 mm 821.0 W/m2 CLR
13:18 -4.5 °C -10.7 °C 33971.7 hPa NE 15 km/h 15 km/h 50 % 0 mm 874.0 W/m2 CLR
13:23 -4.5 °C -10.9 °C 33971.7 hPa ENE 23.8 km/h 23.8 km/h 48 % 0 mm 949.0 W/m2 CLR
13:28 -4.3 °C -10.7 °C 33958.2 hPa North 11.9 km/h 11.9 km/h 49 % 0 mm 956.0 W/m2 CLR
13:33 -4.3 °C -10.9 °C 33958.2 hPa ENE 11.9 km/h 11.9 km/h 47 % 0 mm 937.0 W/m2 CLR
13:38 -4.3 °C -10.8 °C 33958.2 hPa ESE 23.8 km/h 23.8 km/h 48 % 0 mm 819.0 W/m2 CLR
13:43 -4.3 °C -11 °C 33958.2 hPa SE 23.8 km/h 23.8 km/h 47 % 0 mm 854.0 W/m2 CLR
13:48 -4.5 °C -10.9 °C 33948 hPa ESE 18.2 km/h 18.2 km/h 48 % 0 mm 758.0 W/m2 CLR
13:53 -4.5 °C -10.4 °C 33948 hPa East 20.9 km/h 20.9 km/h 51 % 0 mm 768.0 W/m2 CLR
13:58 -4.4 °C -10.2 °C 33948 hPa SE 29.8 km/h 29.8 km/h 52 % 0 mm 888.0 W/m2 CLR
14:03 -4.7 °C -10.7 °C 33948 hPa East 38.8 km/h 38.8 km/h 51 % 0 mm 816.0 W/m2 CLR
14:08 -4.8 °C -10.6 °C 33948 hPa ESE 29.8 km/h 29.8 km/h 52 % 0 mm 863.0 W/m2 CLR
14:13 -4.9 °C -10.7 °C 33948 hPa ESE 32.8 km/h 32.8 km/h 52 % 0 mm 863.0 W/m2 CLR
14:18 -4.8 °C -10.3 °C 33948 hPa ESE 29.8 km/h 29.8 km/h 54 % 0 mm 1095.0 W/m2 CLR
14:23 -4.7 °C -10.5 °C 33948 hPa ESE 35.7 km/h 35.7 km/h 52 % 0 mm 979.0 W/m2 CLR
14:28 -4.7 °C -10.3 °C 33948 hPa ESE 32.8 km/h 32.8 km/h 53 % 0 mm 997.0 W/m2 CLR
14:33 -4.8 °C -10.4 °C 33948 hPa SE 29.8 km/h 29.8 km/h 53 % 0 mm 937.0 W/m2 CLR
14:38 -4.6 °C -10.4 °C 33948 hPa East 29.8 km/h 29.8 km/h 52 % 0 mm 925.0 W/m2 CLR
14:43 -4.8 °C -10.4 °C 33948 hPa SE 38.8 km/h 38.8 km/h 53 % 0 mm 937.0 W/m2 CLR
14:48 -4.8 °C -10.6 °C 33948 hPa ESE 38.8 km/h 38.8 km/h 52 % 0 mm 889.0 W/m2 CLR
14:53 -4.9 °C -10.2 °C 33948 hPa East 29.8 km/h 29.8 km/h 55 % 0 mm 889.0 W/m2 CLR
14:58 -5 °C -10.4 °C 33948 hPa SE 32.8 km/h 32.8 km/h 54 % 0 mm 297.0 W/m2 CLR
15:03 -5.3 °C -10.4 °C 33948 hPa SE 38.8 km/h 38.8 km/h 56 % 0 mm 272.0 W/m2 CLR
15:08 -5.7 °C -10.3 °C 33948 hPa SSE 47.6 km/h 47.6 km/h 59 % 0 mm 332.0 W/m2 CLR
15:13 -5.9 °C -10.3 °C 33948 hPa ESE 44.7 km/h 44.7 km/h 61 % 0 mm 304.0 W/m2 CLR
15:18 -6.1 °C -10.2 °C 33948 hPa SSE 38.8 km/h 38.8 km/h 62 % 0 mm 322.0 W/m2 CLR
15:19 -6.1 °C -9.9 °C 33948 hPa SSE 35.7 km/h 35.7 km/h 64 % 0 mm 322.0 W/m2 CLR
15:24 -6.1 °C -9.9 °C 33948 hPa SSE 35.7 km/h 35.7 km/h 65 % 0 mm 888.0 W/m2 CLR
15:29 -6.1 °C -9.8 °C 33948 hPa South 38.8 km/h 38.8 km/h 65 % 0 mm 800.0 W/m2 CLR
15:34 -6.2 °C -10.1 °C 33948 hPa SSE 46.7 km/h 46.7 km/h 64 % 0 mm 947.0 W/m2 CLR
15:39 -6.1 °C -10 °C 33937.9 hPa SE 44.7 km/h 44.7 km/h 64 % 0 mm 881.0 W/m2 CLR
15:44 -6.1 °C -10 °C 33937.9 hPa SE 32.8 km/h 32.8 km/h 64 % 0 mm 844.0 W/m2 CLR
15:49 -5.8 °C -10.2 °C 33937.9 hPa SE 47.6 km/h 47.6 km/h 61 % 0 mm 861.0 W/m2 CLR
15:54 -5.9 °C -10.4 °C 33924.3 hPa SSE 50.7 km/h 50.7 km/h 60 % 0 mm 613.0 W/m2 CLR
15:59 -5.7 °C -10.1 °C 33924.3 hPa SE 35.7 km/h 35.7 km/h 61 % 0 mm 847.0 W/m2 CLR
16:04 -5.8 °C -10.3 °C 33924.3 hPa SE 38.8 km/h 38.8 km/h 60 % 0 mm 847.0 W/m2 CLR
16:09 -5.8 °C -10.4 °C 33924.3 hPa SSE 36.2 km/h 36.2 km/h 59 % 0 mm 863.0 W/m2 CLR
16:14 -5.8 °C -10.2 °C 33924.3 hPa ESE 41.7 km/h 41.7 km/h 61 % 0 mm 789.0 W/m2 CLR
16:19 -5.7 °C -10.1 °C 33914.2 hPa ESE 41.7 km/h 41.7 km/h 61 % 0 mm 773.0 W/m2 CLR
16:24 -5.6 °C -10.2 °C 33914.2 hPa SSE 31.1 km/h 31.1 km/h 59 % 0 mm 766.0 W/m2 CLR
16:29 -5.4 °C -10.4 °C 33914.2 hPa SE 33.6 km/h 33.6 km/h 57 % 0 mm 758.0 W/m2 CLR
16:34 -5.4 °C -10.6 °C 33914.2 hPa ESE 44.7 km/h 44.7 km/h 56 % 0 mm 751.0 W/m2 CLR
16:39 -5.4 °C -10.4 °C 33914.2 hPa SE 41.4 km/h 41.4 km/h 57 % 0 mm 766.0 W/m2 CLR
16:44 -5.5 °C -10.4 °C 33914.2 hPa ESE 33.6 km/h 33.6 km/h 57 % 0 mm 759.0 W/m2 CLR
16:49 -5.3 °C -10.6 °C 33914.2 hPa SE 32.8 km/h 32.8 km/h 55 % 0 mm 742.0 W/m2 CLR
16:54 -5.1 °C -10.7 °C 33914.2 hPa SE 38.8 km/h 38.8 km/h 53 % 0 mm 766.0 W/m2 CLR
16:59 -5.4 °C -10.8 °C 33914.2 hPa SE 35.7 km/h 35.7 km/h 54 % 0 mm 364.0 W/m2 CLR
17:04 -5.4 °C -11 °C 33900.6 hPa SE 44.7 km/h 44.7 km/h 53 % 0 mm 292.0 W/m2 CLR
17:09 -5.4 °C -10.9 °C 33900.6 hPa SE 38.8 km/h 38.8 km/h 54 % 0 mm 362.0 W/m2 CLR
17:14 -5.4 °C -10.9 °C 33900.6 hPa SSE 44.7 km/h 44.7 km/h 54 % 0 mm 336.0 W/m2 CLR
17:19 -5.3 °C -10.7 °C 33900.6 hPa SSE 41.7 km/h 41.7 km/h 54 % 0 mm 689.0 W/m2 CLR
17:24 -5.1 °C -10.7 °C 33890.5 hPa SE 26.9 km/h 26.9 km/h 53 % 0 mm 687.0 W/m2 CLR
17:29 -4.8 °C -10.8 °C 33890.5 hPa SE 41.7 km/h 41.7 km/h 51 % 0 mm 628.0 W/m2 CLR
17:34 -4.8 °C -11.1 °C 33890.5 hPa ESE 44.7 km/h 44.7 km/h 49 % 0 mm 601.0 W/m2 CLR
17:39 -4.9 °C -11.1 °C 33890.5 hPa SSE 38.8 km/h 38.8 km/h 50 % 0 mm 127.0 W/m2 CLR
17:44 -4.9 °C -11 °C 33890.5 hPa SE 29.8 km/h 29.8 km/h 50 % 0 mm 601.0 W/m2 CLR
17:49 -4.8 °C -10.9 °C 33890.5 hPa South 26.9 km/h 26.9 km/h 50 % 0 mm 582.0 W/m2 CLR
17:54 -4.8 °C -11.1 °C 33890.5 hPa SE 47.6 km/h 47.6 km/h 49 % 0 mm 547.0 W/m2 CLR
17:59 -4.8 °C -11.3 °C 33880.3 hPa East 50.7 km/h 50.7 km/h 48 % 0 mm 503.0 W/m2 CLR
18:04 -4.9 °C -11.3 °C 33880.3 hPa South 38.8 km/h 38.8 km/h 48 % 0 mm 485.0 W/m2 CLR
18:09 -4.8 °C -10.9 °C 33880.3 hPa SE 32.8 km/h 32.8 km/h 50 % 0 mm 473.0 W/m2 CLR
18:14 -4.9 °C -11.1 °C 33880.3 hPa SSE 32.8 km/h 32.8 km/h 50 % 0 mm 457.0 W/m2 CLR
18:19 -4.9 °C -11.2 °C 33880.3 hPa SE 50.7 km/h 50.7 km/h 49 % 0 mm 441.0 W/m2 CLR
18:24 -4.9 °C -10.9 °C 33880.3 hPa SE 35.7 km/h 35.7 km/h 51 % 0 mm 425.0 W/m2 CLR
18:29 -4.9 °C -10.7 °C 33880.3 hPa SSE 38.8 km/h 38.8 km/h 52 % 0 mm 438.0 W/m2 CLR
18:34 -5.1 °C -10.8 °C 33880.3 hPa SSE 26.9 km/h 26.9 km/h 52 % 0 mm 239.0 W/m2 CLR
18:39 -5.2 °C -10.8 °C 33880.3 hPa South 38.8 km/h 38.8 km/h 53 % 0 mm 160.0 W/m2 CLR
18:44 -5.5 °C -10.7 °C 33880.3 hPa South 47.6 km/h 47.6 km/h 55 % 0 mm 151.0 W/m2 CLR
18:49 -5.6 °C -10.7 °C 33880.3 hPa South 35.7 km/h 35.7 km/h 56 % 0 mm 118.0 W/m2 CLR
18:54 -5.7 °C -10.5 °C 33880.3 hPa South 29.8 km/h 29.8 km/h 58 % 0 mm 98.0 W/m2 CLR
18:59 -5.9 °C -10.6 °C 33880.3 hPa SSE 35.7 km/h 35.7 km/h 59 % 0 mm 90.0 W/m2 CLR
19:04 -6.1 °C -10.4 °C 33880.3 hPa SSW 32.8 km/h 32.8 km/h 61 % 0 mm 72.0 W/m2 CLR
19:09 -6.3 °C -10.3 °C 33890.5 hPa SSE 44.7 km/h 44.7 km/h 63 % 0 mm 56.0 W/m2 FEW
19:14 -6.5 °C -10.2 °C 33890.5 hPa SSE 47.6 km/h 47.6 km/h 65 % 0 mm 39.0 W/m2 SCT
19:19 -6.6 °C -10.2 °C 33890.5 hPa SSE 47.6 km/h 47.6 km/h 66 % 0 mm 21.0 W/m2 BKN
19:24 -6.7 °C -10.2 °C 33890.5 hPa South 29.8 km/h 29.8 km/h 67 % 0 mm 14.0 W/m2 BKN
19:29 -6.8 °C -10.2 °C 33890.5 hPa SSE 29.8 km/h 29.8 km/h 68 % 0 mm 9.0 W/m2 BKN
19:34 -6.9 °C -10.1 °C 33900.6 hPa South 26.9 km/h 26.9 km/h 70 % 0 mm 7.0 W/m2 BKN
19:39 -7.1 °C -9.9 °C 33900.6 hPa South 29.8 km/h 29.8 km/h 72 % 0 mm 7.0 W/m2 BKN
19:44 -7.2 °C -9.8 °C 33914.2 hPa Calm     74 % 7.62 mm 7.0 W/m2 RA
19:49 -7.3 °C -9.7 °C 33924.3 hPa SSW 11.9 km/h 11.9 km/h 76 % 25.4 mm 9.0 W/m2 RA
19:54 -7.5 °C -9.6 °C 33924.3 hPa Calm     79 % 63.5 mm 14.0 W/m2 RA
19:59 -7.7 °C -9.7 °C 33914.2 hPa East 6 km/h 6 km/h 80 % 91.44 mm 21.0 W/m2 RA
20:04 -8 °C -9.6 °C 33914.2 hPa East 17.9 km/h 17.9 km/h 83 % 121.92 mm 28.0 W/m2 RA
20:09 -8.2 °C -9.6 °C 33914.2 hPa SE 12.9 km/h 12.9 km/h 85 % 121.92 mm 28.0 W/m2 BKN
20:15 -8.3 °C -9.6 °C 33900.6 hPa SE 18.2 km/h 18.2 km/h 86 % 121.92 mm 21.0 W/m2 BKN
20:20 -8.2 °C -9.7 °C 33900.6 hPa SE 23.8 km/h 23.8 km/h 85 % 121.92 mm 16.0 W/m2 BKN
20:25 -8.2 °C -9.6 °C 33900.6 hPa SE 26.9 km/h 26.9 km/h 85 % 121.92 mm 21.0 W/m2 BKN
20:30 -8.2 °C -9.6 °C 33900.6 hPa SE 28.5 km/h 28.5 km/h 86 % 121.92 mm 30.0 W/m2 BKN
20:35 -8.2 °C -9.8 °C 33900.6 hPa SE 32.8 km/h 32.8 km/h 83 % 121.92 mm 21.0 W/m2 BKN
20:40 -8.1 °C -9.8 °C 33900.6 hPa SSE 35.7 km/h 35.7 km/h 82 % 121.92 mm 11.0 W/m2 BKN
20:45 -8.1 °C -9.9 °C 33900.6 hPa SE 38.8 km/h 38.8 km/h 81 % 116.84 mm 7.0 W/m2 BKN
20:50 -8.1 °C -9.9 °C 33900.6 hPa SSE 29.8 km/h 29.8 km/h 81 % 96.52 mm 0.0 W/m2 OVC
20:55 -8.1 °C -9.9 °C 33900.6 hPa SSE 29.8 km/h 29.8 km/h 81 % 58.42 mm 0.0 W/m2 OVC
21:00 -8 °C -9.9 °C 33900.6 hPa SSE 38.8 km/h 38.8 km/h 80 % 25.4 mm 0.0 W/m2 OVC
21:05 -8 °C -9.9 °C 33914.2 hPa SE 26.9 km/h 26.9 km/h 80 % 0 mm 0.0 W/m2 OVC
21:10 -8 °C -9.9 °C 33914.2 hPa SSW 26.9 km/h 26.9 km/h 80 % 0 mm 0.0 W/m2 OVC
21:15 -8.1 °C -9.9 °C 33924.3 hPa SSW 26.9 km/h 26.9 km/h 81 % 0 mm 0.0 W/m2 OVC
21:20 -8.1 °C -9.9 °C 33924.3 hPa SSE 35.7 km/h 35.7 km/h 81 % 7.62 mm 0.0 W/m2 RA
21:25 -8.3 °C -9.9 °C 33924.3 hPa South 29.8 km/h 29.8 km/h 83 % 12.7 mm 0.0 W/m2 RA
21:30 -8.4 °C -9.9 °C 33924.3 hPa SSE 29.8 km/h 29.8 km/h 85 % 25.4 mm 0.0 W/m2 RA
21:35 -8.6 °C -9.8 °C 33924.3 hPa South 26.9 km/h 26.9 km/h 86 % 38.1 mm 0.0 W/m2 RA
21:40 -8.6 °C -9.9 °C 33924.3 hPa South 15 km/h 15 km/h 86 % 45.72 mm 0.0 W/m2 RA
21:45 -8.7 °C -9.9 °C 33914.2 hPa SE 18.2 km/h 18.2 km/h 87 % 50.8 mm 0.0 W/m2 RA
21:50 -8.7 °C -9.9 °C 33914.2 hPa SE 23.8 km/h 23.8 km/h 87 % 50.8 mm 0.0 W/m2
21:55 -8.7 °C -9.9 °C 33914.2 hPa SE 26.9 km/h 26.9 km/h 87 % 50.8 mm 0.0 W/m2 CLR
22:00 -8.7 °C -9.9 °C 33914.2 hPa SE 23.8 km/h 23.8 km/h 87 % 50.8 mm 0.0 W/m2 CLR
22:01 -8.7 °C -9.9 °C 33914.2 hPa South 23.8 km/h 23.8 km/h 87 % 50.8 mm 0.0 W/m2 CLR
22:06 -8.7 °C -9.9 °C 33914.2 hPa SE 23.8 km/h 23.8 km/h 87 % 50.8 mm 0.0 W/m2 CLR
22:11 -8.7 °C -9.9 °C 33914.2 hPa SSE 28.5 km/h 28.5 km/h 87 % 50.8 mm 0.0 W/m2 CLR
22:16 -8.7 °C -9.8 °C 33914.2 hPa SSE 29.8 km/h 29.8 km/h 88 % 45.72 mm 0.0 W/m2 CLR
22:21 -8.7 °C -9.9 °C 33914.2 hPa SSE 26.9 km/h 26.9 km/h 87 % 45.72 mm 0.0 W/m2 CLR
22:26 -8.7 °C -9.9 °C 33914.2 hPa SE 29.8 km/h 29.8 km/h 87 % 38.1 mm 0.0 W/m2 CLR
22:31 -8.7 °C -9.9 °C 33914.2 hPa SSE 29.8 km/h 29.8 km/h 87 % 25.4 mm 0.0 W/m2 CLR
22:36 -8.7 °C -9.9 °C 33914.2 hPa SE 26.9 km/h 26.9 km/h 87 % 12.7 mm 0.0 W/m2 CLR
22:41 -8.7 °C -9.9 °C 33900.6 hPa SSE 28.5 km/h 28.5 km/h 87 % 7.62 mm 0.0 W/m2 CLR
22:46 -8.7 °C -9.9 °C 33914.2 hPa SSE 26.9 km/h 26.9 km/h 87 % 0 mm 0.0 W/m2 CLR
22:51 -8.7 °C -9.9 °C 33900.6 hPa SSE 32.8 km/h 32.8 km/h 86 % 0 mm 0.0 W/m2 CLR
22:56 -8.6 °C -10 °C 33900.6 hPa SSE 32.8 km/h 32.8 km/h 85 % 0 mm 0.0 W/m2 CLR
23:01 -8.5 °C -10.1 °C 33914.2 hPa SSE 35.7 km/h 35.7 km/h 84 % 0 mm 0.0 W/m2 CLR
23:06 -8.6 °C -9.9 °C 33900.6 hPa SSE 29.8 km/h 29.8 km/h 85 % 0 mm 0.0 W/m2 CLR
23:11 -8.6 °C -10.1 °C 33900.6 hPa SSE 23.8 km/h 23.8 km/h 85 % 0 mm 0.0 W/m2 CLR
23:16 -8.7 °C -10.1 °C 33900.6 hPa SE 23.8 km/h 23.8 km/h 85 % 0 mm 0.0 W/m2 CLR
23:21 -8.7 °C -10.1 °C 33900.6 hPa SE 26.9 km/h 26.9 km/h 86 % 0 mm 0.0 W/m2 CLR
23:26 -8.8 °C -10.1 °C 33900.6 hPa ESE 20.9 km/h 20.9 km/h 86 % 0 mm 0.0 W/m2 CLR
23:31 -8.8 °C -10.1 °C 33890.5 hPa ESE 12.9 km/h 12.9 km/h 86 % 0 mm 0.0 W/m2 CLR
23:36 -8.8 °C -10.1 °C 33890.5 hPa ESE 17.9 km/h 17.9 km/h 86 % 0 mm 0.0 W/m2 CLR
23:41 -8.8 °C -10.1 °C 33890.5 hPa SSE 17.9 km/h 17.9 km/h 86 % 0 mm 0.0 W/m2 CLR
23:47 -8.8 °C -10.1 °C 33890.5 hPa ESE 9 km/h 9 km/h 86 % 0 mm 0.0 W/m2 CLR
23:52 -8.8 °C -10.2 °C 33890.5 hPa Calm     85 % 0 mm 0.0 W/m2 CLR
23:57 -8.7 °C -10.1 °C 33890.5 hPa Calm     85 % 0 mm 0.0 W/m2 CLR
Lo Temps de Massalio
Compliments of Weather Underground - 1.25 mb